sensor_id;sensor_type;location;lat;lon;timestamp;P1;durP1;ratioP1;P2;durP2;ratioP2
65757;SDS011;52495;52.208;5.158;2022-11-28T00:02:17;12.65;;;7.95;;
65757;SDS011;52495;52.208;5.158;2022-11-28T00:04:44;12.50;;;7.88;;
65757;SDS011;52495;52.208;5.158;2022-11-28T00:07:12;14.43;;;8.50;;
65757;SDS011;52495;52.208;5.158;2022-11-28T00:09:38;11.73;;;8.00;;
65757;SDS011;52495;52.208;5.158;2022-11-28T00:12:05;13.13;;;8.48;;
65757;SDS011;52495;52.208;5.158;2022-11-28T00:14:32;12.85;;;8.43;;
65757;SDS011;52495;52.208;5.158;2022-11-28T00:16:59;11.02;;;7.63;;
65757;SDS011;52495;52.208;5.158;2022-11-28T00:19:25;12.35;;;8.27;;
65757;SDS011;52495;52.208;5.158;2022-11-28T00:21:53;10.32;;;7.40;;
65757;SDS011;52495;52.208;5.158;2022-11-28T00:24:21;16.42;;;9.00;;
65757;SDS011;52495;52.208;5.158;2022-11-28T00:26:48;13.95;;;8.77;;
65757;SDS011;52495;52.208;5.158;2022-11-28T00:29:14;15.43;;;8.05;;
65757;SDS011;52495;52.208;5.158;2022-11-28T00:31:41;11.25;;;7.72;;
65757;SDS011;52495;52.208;5.158;2022-11-28T00:34:08;13.32;;;7.88;;
65757;SDS011;52495;52.208;5.158;2022-11-28T00:36:36;11.60;;;8.02;;
65757;SDS011;52495;52.208;5.158;2022-11-28T00:39:03;14.07;;;8.73;;
65757;SDS011;52495;52.208;5.158;2022-11-28T00:41:31;12.73;;;8.52;;
65757;SDS011;52495;52.208;5.158;2022-11-28T00:43:59;16.00;;;9.32;;
65757;SDS011;52495;52.208;5.158;2022-11-28T00:46:26;15.00;;;8.13;;
65757;SDS011;52495;52.208;5.158;2022-11-28T00:48:53;16.73;;;8.77;;
65757;SDS011;52495;52.208;5.158;2022-11-28T00:51:21;14.30;;;8.88;;
65757;SDS011;52495;52.208;5.158;2022-11-28T00:53:50;13.10;;;8.70;;
65757;SDS011;52495;52.208;5.158;2022-11-28T00:56:19;14.65;;;9.10;;
65757;SDS011;52495;52.208;5.158;2022-11-28T00:58:48;12.02;;;9.00;;
65757;SDS011;52495;52.208;5.158;2022-11-28T01:01:16;13.57;;;8.88;;
65757;SDS011;52495;52.208;5.158;2022-11-28T01:03:45;15.43;;;9.43;;
65757;SDS011;52495;52.208;5.158;2022-11-28T01:06:18;13.68;;;8.65;;
65757;SDS011;52495;52.208;5.158;2022-11-28T01:08:46;13.35;;;8.77;;
65757;SDS011;52495;52.208;5.158;2022-11-28T01:11:14;12.38;;;8.15;;
65757;SDS011;52495;52.208;5.158;2022-11-28T01:13:40;13.35;;;9.27;;
65757;SDS011;52495;52.208;5.158;2022-11-28T01:16:08;12.05;;;8.85;;
65757;SDS011;52495;52.208;5.158;2022-11-28T01:18:36;19.85;;;9.23;;
65757;SDS011;52495;52.208;5.158;2022-11-28T01:21:04;13.20;;;9.65;;
65757;SDS011;52495;52.208;5.158;2022-11-28T01:23:32;12.52;;;9.23;;
65757;SDS011;52495;52.208;5.158;2022-11-28T01:25:59;13.38;;;9.48;;
65757;SDS011;52495;52.208;5.158;2022-11-28T01:28:27;14.00;;;10.40;;
65757;SDS011;52495;52.208;5.158;2022-11-28T01:30:54;13.77;;;10.13;;
65757;SDS011;52495;52.208;5.158;2022-11-28T01:33:22;13.57;;;9.52;;
65757;SDS011;52495;52.208;5.158;2022-11-28T01:35:53;12.98;;;9.60;;
65757;SDS011;52495;52.208;5.158;2022-11-28T01:38:20;14.70;;;10.35;;
65757;SDS011;52495;52.208;5.158;2022-11-28T01:40:46;13.13;;;10.45;;
65757;SDS011;52495;52.208;5.158;2022-11-28T01:43:13;13.15;;;10.13;;
65757;SDS011;52495;52.208;5.158;2022-11-28T01:45:40;13.35;;;9.95;;
65757;SDS011;52495;52.208;5.158;2022-11-28T01:48:07;14.25;;;10.52;;
65757;SDS011;52495;52.208;5.158;2022-11-28T01:50:41;13.15;;;10.15;;
65757;SDS011;52495;52.208;5.158;2022-11-28T01:53:10;14.20;;;10.15;;
65757;SDS011;52495;52.208;5.158;2022-11-28T01:55:39;13.57;;;9.88;;
65757;SDS011;52495;52.208;5.158;2022-11-28T01:58:08;12.80;;;9.50;;
65757;SDS011;52495;52.208;5.158;2022-11-28T02:00:37;12.30;;;10.30;;
65757;SDS011;52495;52.208;5.158;2022-11-28T02:03:04;13.88;;;9.85;;
65757;SDS011;52495;52.208;5.158;2022-11-28T02:05:35;7.90;;;6.03;;
65757;SDS011;52495;52.208;5.158;2022-11-28T02:08:03;8.68;;;6.70;;
65757;SDS011;52495;52.208;5.158;2022-11-28T02:10:32;10.65;;;8.75;;
65757;SDS011;52495;52.208;5.158;2022-11-28T02:13:10;12.48;;;9.10;;
65757;SDS011;52495;52.208;5.158;2022-11-28T02:15:50;11.50;;;9.15;;
65757;SDS011;52495;52.208;5.158;2022-11-28T02:18:31;10.38;;;8.52;;
65757;SDS011;52495;52.208;5.158;2022-11-28T02:21:14;10.98;;;8.95;;
65757;SDS011;52495;52.208;5.158;2022-11-28T02:23:56;9.93;;;7.15;;
65757;SDS011;52495;52.208;5.158;2022-11-28T02:26:48;9.98;;;8.13;;
65757;SDS011;52495;52.208;5.158;2022-11-28T02:29:42;9.15;;;7.63;;
65757;SDS011;52495;52.208;5.158;2022-11-28T02:32:24;10.18;;;7.57;;
65757;SDS011;52495;52.208;5.158;2022-11-28T02:35:04;9.32;;;7.82;;
65757;SDS011;52495;52.208;5.158;2022-11-28T02:37:36;7.82;;;6.68;;
65757;SDS011;52495;52.208;5.158;2022-11-28T02:40:13;8.57;;;6.88;;
65757;SDS011;52495;52.208;5.158;2022-11-28T02:42:50;9.88;;;7.22;;
65757;SDS011;52495;52.208;5.158;2022-11-28T02:45:27;8.55;;;6.88;;
65757;SDS011;52495;52.208;5.158;2022-11-28T02:48:03;8.02;;;7.18;;
65757;SDS011;52495;52.208;5.158;2022-11-28T02:50:33;8.43;;;6.40;;
65757;SDS011;52495;52.208;5.158;2022-11-28T02:55:36;9.68;;;6.72;;
65757;SDS011;52495;52.208;5.158;2022-11-28T02:58:05;8.13;;;6.97;;
65757;SDS011;52495;52.208;5.158;2022-11-28T03:00:33;9.50;;;7.70;;
65757;SDS011;52495;52.208;5.158;2022-11-28T03:03:09;9.35;;;7.65;;
65757;SDS011;52495;52.208;5.158;2022-11-28T03:05:54;9.75;;;7.53;;
65757;SDS011;52495;52.208;5.158;2022-11-28T03:08:29;10.70;;;8.20;;
65757;SDS011;52495;52.208;5.158;2022-11-28T03:11:03;10.52;;;8.07;;
65757;SDS011;52495;52.208;5.158;2022-11-28T03:13:39;9.52;;;8.05;;
65757;SDS011;52495;52.208;5.158;2022-11-28T03:16:14;10.85;;;9.20;;
65757;SDS011;52495;52.208;5.158;2022-11-28T03:18:49;10.57;;;9.00;;
65757;SDS011;52495;52.208;5.158;2022-11-28T03:21:24;10.35;;;8.85;;
65757;SDS011;52495;52.208;5.158;2022-11-28T03:23:58;9.20;;;7.93;;
65757;SDS011;52495;52.208;5.158;2022-11-28T03:26:28;11.32;;;9.50;;
65757;SDS011;52495;52.208;5.158;2022-11-28T03:29:05;11.65;;;10.27;;
65757;SDS011;52495;52.208;5.158;2022-11-28T03:31:38;9.63;;;8.18;;
65757;SDS011;52495;52.208;5.158;2022-11-28T03:34:11;13.38;;;9.93;;
65757;SDS011;52495;52.208;5.158;2022-11-28T03:36:43;13.05;;;10.55;;
65757;SDS011;52495;52.208;5.158;2022-11-28T03:39:13;13.02;;;11.38;;
65757;SDS011;52495;52.208;5.158;2022-11-28T03:41:46;13.00;;;11.32;;
65757;SDS011;52495;52.208;5.158;2022-11-28T03:44:18;12.50;;;11.02;;
65757;SDS011;52495;52.208;5.158;2022-11-28T03:46:50;14.05;;;11.80;;
65757;SDS011;52495;52.208;5.158;2022-11-28T03:49:22;15.50;;;11.60;;
65757;SDS011;52495;52.208;5.158;2022-11-28T03:51:52;13.85;;;11.15;;
65757;SDS011;52495;52.208;5.158;2022-11-28T03:54:23;18.02;;;12.57;;
65757;SDS011;52495;52.208;5.158;2022-11-28T03:56:56;16.77;;;12.25;;
65757;SDS011;52495;52.208;5.158;2022-11-28T03:59:29;16.55;;;14.38;;
65757;SDS011;52495;52.208;5.158;2022-11-28T04:02:00;16.42;;;13.02;;
65757;SDS011;52495;52.208;5.158;2022-11-28T04:04:34;16.13;;;14.02;;
65757;SDS011;52495;52.208;5.158;2022-11-28T04:07:11;17.50;;;14.27;;
65757;SDS011;52495;52.208;5.158;2022-11-28T04:09:45;18.33;;;14.23;;
65757;SDS011;52495;52.208;5.158;2022-11-28T04:12:16;20.15;;;15.07;;
65757;SDS011;52495;52.208;5.158;2022-11-28T04:14:50;20.80;;;15.43;;
65757;SDS011;52495;52.208;5.158;2022-11-28T04:17:23;20.45;;;16.23;;
65757;SDS011;52495;52.208;5.158;2022-11-28T04:19:58;19.90;;;15.93;;
65757;SDS011;52495;52.208;5.158;2022-11-28T04:22:31;22.52;;;15.73;;
65757;SDS011;52495;52.208;5.158;2022-11-28T04:25:03;19.25;;;16.10;;
65757;SDS011;52495;52.208;5.158;2022-11-28T04:27:34;22.10;;;15.63;;
65757;SDS011;52495;52.208;5.158;2022-11-28T04:30:04;20.02;;;15.82;;
65757;SDS011;52495;52.208;5.158;2022-11-28T04:32:35;26.27;;;16.52;;
65757;SDS011;52495;52.208;5.158;2022-11-28T04:37:37;20.25;;;15.77;;
65757;SDS011;52495;52.208;5.158;2022-11-28T04:40:06;21.85;;;16.48;;
65757;SDS011;52495;52.208;5.158;2022-11-28T04:42:38;22.17;;;17.20;;
65757;SDS011;52495;52.208;5.158;2022-11-28T04:45:08;21.92;;;17.20;;
65757;SDS011;52495;52.208;5.158;2022-11-28T04:47:38;24.05;;;17.20;;
65757;SDS011;52495;52.208;5.158;2022-11-28T04:50:06;26.20;;;18.30;;
65757;SDS011;52495;52.208;5.158;2022-11-28T04:52:35;23.58;;;17.35;;
65757;SDS011;52495;52.208;5.158;2022-11-28T04:55:10;24.70;;;18.88;;
65757;SDS011;52495;52.208;5.158;2022-11-28T04:57:44;23.13;;;17.95;;
65757;SDS011;52495;52.208;5.158;2022-11-28T05:00:16;23.48;;;17.75;;
65757;SDS011;52495;52.208;5.158;2022-11-28T05:02:45;25.50;;;17.50;;
65757;SDS011;52495;52.208;5.158;2022-11-28T05:05:17;22.55;;;16.90;;
65757;SDS011;52495;52.208;5.158;2022-11-28T05:07:46;25.33;;;18.02;;
65757;SDS011;52495;52.208;5.158;2022-11-28T05:10:13;27.55;;;17.13;;
65757;SDS011;52495;52.208;5.158;2022-11-28T05:12:40;44.50;;;19.20;;
65757;SDS011;52495;52.208;5.158;2022-11-28T05:15:08;25.80;;;16.63;;
65757;SDS011;52495;52.208;5.158;2022-11-28T05:17:35;23.85;;;16.35;;
65757;SDS011;52495;52.208;5.158;2022-11-28T05:20:03;27.65;;;15.70;;
65757;SDS011;52495;52.208;5.158;2022-11-28T05:22:33;35.25;;;14.88;;
65757;SDS011;52495;52.208;5.158;2022-11-28T05:24:59;29.55;;;17.48;;
65757;SDS011;52495;52.208;5.158;2022-11-28T05:27:26;22.35;;;15.90;;
65757;SDS011;52495;52.208;5.158;2022-11-28T05:29:54;23.05;;;16.55;;
65757;SDS011;52495;52.208;5.158;2022-11-28T05:32:21;22.77;;;16.25;;
65757;SDS011;52495;52.208;5.158;2022-11-28T05:34:48;23.77;;;17.15;;
65757;SDS011;52495;52.208;5.158;2022-11-28T05:37:14;23.67;;;16.75;;
65757;SDS011;52495;52.208;5.158;2022-11-28T05:39:43;23.55;;;15.80;;
65757;SDS011;52495;52.208;5.158;2022-11-28T05:42:09;25.25;;;16.67;;
65757;SDS011;52495;52.208;5.158;2022-11-28T05:44:36;23.17;;;16.73;;
65757;SDS011;52495;52.208;5.158;2022-11-28T05:47:03;24.40;;;17.02;;
65757;SDS011;52495;52.208;5.158;2022-11-28T05:49:30;23.52;;;16.98;;
65757;SDS011;52495;52.208;5.158;2022-11-28T05:51:56;25.75;;;17.27;;
65757;SDS011;52495;52.208;5.158;2022-11-28T05:54:23;26.63;;;16.65;;
65757;SDS011;52495;52.208;5.158;2022-11-28T05:56:52;24.33;;;16.88;;
65757;SDS011;52495;52.208;5.158;2022-11-28T05:59:18;27.25;;;17.20;;
65757;SDS011;52495;52.208;5.158;2022-11-28T06:01:45;21.23;;;15.18;;
65757;SDS011;52495;52.208;5.158;2022-11-28T06:04:12;20.45;;;13.85;;
65757;SDS011;52495;52.208;5.158;2022-11-28T06:06:38;24.35;;;15.70;;
65757;SDS011;52495;52.208;5.158;2022-11-28T06:09:08;22.60;;;16.58;;
65757;SDS011;52495;52.208;5.158;2022-11-28T06:11:35;26.25;;;15.88;;
65757;SDS011;52495;52.208;5.158;2022-11-28T06:14:03;25.23;;;17.20;;
65757;SDS011;52495;52.208;5.158;2022-11-28T06:16:30;24.15;;;16.40;;
65757;SDS011;52495;52.208;5.158;2022-11-28T06:18:58;23.02;;;15.77;;
65757;SDS011;52495;52.208;5.158;2022-11-28T06:21:26;24.38;;;16.08;;
65757;SDS011;52495;52.208;5.158;2022-11-28T06:23:54;26.60;;;16.70;;
65757;SDS011;52495;52.208;5.158;2022-11-28T06:26:22;24.05;;;16.73;;
65757;SDS011;52495;52.208;5.158;2022-11-28T06:28:50;23.55;;;15.68;;
65757;SDS011;52495;52.208;5.158;2022-11-28T06:31:19;24.90;;;16.17;;
65757;SDS011;52495;52.208;5.158;2022-11-28T06:33:47;23.13;;;16.63;;
65757;SDS011;52495;52.208;5.158;2022-11-28T06:36:15;25.48;;;16.75;;
65757;SDS011;52495;52.208;5.158;2022-11-28T06:38:43;22.40;;;15.93;;
65757;SDS011;52495;52.208;5.158;2022-11-28T06:41:10;24.92;;;17.30;;
65757;SDS011;52495;52.208;5.158;2022-11-28T06:43:39;21.90;;;15.82;;
65757;SDS011;52495;52.208;5.158;2022-11-28T06:46:09;28.67;;;17.73;;
65757;SDS011;52495;52.208;5.158;2022-11-28T06:48:38;26.83;;;18.10;;
65757;SDS011;52495;52.208;5.158;2022-11-28T06:51:05;25.08;;;16.63;;
65757;SDS011;52495;52.208;5.158;2022-11-28T06:53:32;24.92;;;17.90;;
65757;SDS011;52495;52.208;5.158;2022-11-28T06:56:03;23.85;;;16.63;;
65757;SDS011;52495;52.208;5.158;2022-11-28T06:58:30;28.58;;;16.75;;
65757;SDS011;52495;52.208;5.158;2022-11-28T07:01:03;26.48;;;17.05;;
65757;SDS011;52495;52.208;5.158;2022-11-28T07:05:59;26.50;;;17.63;;
65757;SDS011;52495;52.208;5.158;2022-11-28T07:08:26;25.35;;;17.45;;
65757;SDS011;52495;52.208;5.158;2022-11-28T07:10:53;25.23;;;17.05;;
65757;SDS011;52495;52.208;5.158;2022-11-28T07:13:21;26.52;;;18.48;;
65757;SDS011;52495;52.208;5.158;2022-11-28T07:15:49;28.88;;;18.35;;
65757;SDS011;52495;52.208;5.158;2022-11-28T07:18:16;28.15;;;18.45;;
65757;SDS011;52495;52.208;5.158;2022-11-28T07:20:43;34.17;;;19.92;;
65757;SDS011;52495;52.208;5.158;2022-11-28T07:23:11;27.95;;;19.48;;
65757;SDS011;52495;52.208;5.158;2022-11-28T07:25:37;31.33;;;19.95;;
65757;SDS011;52495;52.208;5.158;2022-11-28T07:28:04;31.52;;;19.77;;
65757;SDS011;52495;52.208;5.158;2022-11-28T07:30:31;33.42;;;20.63;;
65757;SDS011;52495;52.208;5.158;2022-11-28T07:32:58;37.15;;;21.55;;
65757;SDS011;52495;52.208;5.158;2022-11-28T07:35:25;30.92;;;19.73;;
65757;SDS011;52495;52.208;5.158;2022-11-28T07:37:52;37.05;;;22.60;;
65757;SDS011;52495;52.208;5.158;2022-11-28T07:40:20;33.38;;;21.85;;
65757;SDS011;52495;52.208;5.158;2022-11-28T07:42:47;39.08;;;22.52;;
65757;SDS011;52495;52.208;5.158;2022-11-28T07:45:15;33.45;;;22.15;;
65757;SDS011;52495;52.208;5.158;2022-11-28T07:47:42;33.28;;;21.63;;
65757;SDS011;52495;52.208;5.158;2022-11-28T07:50:08;44.42;;;21.98;;
65757;SDS011;52495;52.208;5.158;2022-11-28T07:52:35;37.08;;;22.10;;
65757;SDS011;52495;52.208;5.158;2022-11-28T07:55:02;33.55;;;22.27;;
65757;SDS011;52495;52.208;5.158;2022-11-28T07:57:31;41.30;;;22.73;;
65757;SDS011;52495;52.208;5.158;2022-11-28T07:59:58;32.95;;;20.45;;
65757;SDS011;52495;52.208;5.158;2022-11-28T08:02:25;36.42;;;21.63;;
65757;SDS011;52495;52.208;5.158;2022-11-28T08:04:56;34.83;;;21.58;;
65757;SDS011;52495;52.208;5.158;2022-11-28T08:07:23;36.65;;;21.92;;
65757;SDS011;52495;52.208;5.158;2022-11-28T08:09:50;34.75;;;20.88;;
65757;SDS011;52495;52.208;5.158;2022-11-28T08:12:17;37.15;;;22.00;;
65757;SDS011;52495;52.208;5.158;2022-11-28T08:14:45;39.40;;;20.15;;
65757;SDS011;52495;52.208;5.158;2022-11-28T08:17:12;35.58;;;21.20;;
65757;SDS011;52495;52.208;5.158;2022-11-28T08:19:38;41.08;;;22.67;;
65757;SDS011;52495;52.208;5.158;2022-11-28T08:22:05;39.20;;;21.33;;
65757;SDS011;52495;52.208;5.158;2022-11-28T08:24:32;41.65;;;22.83;;
65757;SDS011;52495;52.208;5.158;2022-11-28T08:26:58;38.55;;;22.95;;
65757;SDS011;52495;52.208;5.158;2022-11-28T08:29:26;39.95;;;22.90;;
65757;SDS011;52495;52.208;5.158;2022-11-28T08:31:54;43.33;;;24.20;;
65757;SDS011;52495;52.208;5.158;2022-11-28T08:34:21;49.97;;;25.02;;
65757;SDS011;52495;52.208;5.158;2022-11-28T08:36:48;43.20;;;22.98;;
65757;SDS011;52495;52.208;5.158;2022-11-28T08:39:15;41.88;;;24.00;;
65757;SDS011;52495;52.208;5.158;2022-11-28T08:41:41;43.38;;;24.23;;
65757;SDS011;52495;52.208;5.158;2022-11-28T08:44:09;47.67;;;25.25;;
65757;SDS011;52495;52.208;5.158;2022-11-28T08:46:36;41.75;;;23.25;;
65757;SDS011;52495;52.208;5.158;2022-11-28T08:49:04;44.13;;;24.05;;
65757;SDS011;52495;52.208;5.158;2022-11-28T08:51:31;46.83;;;23.55;;
65757;SDS011;52495;52.208;5.158;2022-11-28T08:54:01;51.88;;;26.05;;
65757;SDS011;52495;52.208;5.158;2022-11-28T08:56:28;48.70;;;24.92;;
65757;SDS011;52495;52.208;5.158;2022-11-28T08:58:54;53.25;;;25.58;;
65757;SDS011;52495;52.208;5.158;2022-11-28T09:01:22;47.97;;;24.52;;
65757;SDS011;52495;52.208;5.158;2022-11-28T09:03:51;47.65;;;24.33;;
65757;SDS011;52495;52.208;5.158;2022-11-28T09:06:20;48.50;;;24.08;;
65757;SDS011;52495;52.208;5.158;2022-11-28T09:08:49;53.78;;;26.20;;
65757;SDS011;52495;52.208;5.158;2022-11-28T09:11:18;51.85;;;25.58;;
65757;SDS011;52495;52.208;5.158;2022-11-28T09:13:45;57.25;;;26.98;;
65757;SDS011;52495;52.208;5.158;2022-11-28T09:16:13;52.10;;;26.00;;
65757;SDS011;52495;52.208;5.158;2022-11-28T09:18:39;59.83;;;28.00;;
65757;SDS011;52495;52.208;5.158;2022-11-28T09:21:07;52.63;;;25.90;;
65757;SDS011;52495;52.208;5.158;2022-11-28T09:23:38;54.83;;;27.15;;
65757;SDS011;52495;52.208;5.158;2022-11-28T09:26:07;61.25;;;26.90;;
65757;SDS011;52495;52.208;5.158;2022-11-28T09:28:34;54.50;;;25.33;;
65757;SDS011;52495;52.208;5.158;2022-11-28T09:31:02;50.92;;;24.95;;
65757;SDS011;52495;52.208;5.158;2022-11-28T09:33:30;55.08;;;25.75;;
65757;SDS011;52495;52.208;5.158;2022-11-28T09:35:57;62.63;;;28.27;;
65757;SDS011;52495;52.208;5.158;2022-11-28T09:38:24;59.28;;;26.23;;
65757;SDS011;52495;52.208;5.158;2022-11-28T09:40:53;62.38;;;26.30;;
65757;SDS011;52495;52.208;5.158;2022-11-28T09:43:22;60.65;;;25.65;;
65757;SDS011;52495;52.208;5.158;2022-11-28T09:45:54;68.40;;;25.73;;
65757;SDS011;52495;52.208;5.158;2022-11-28T09:48:24;72.28;;;27.33;;
65757;SDS011;52495;52.208;5.158;2022-11-28T09:50:57;73.00;;;27.02;;
65757;SDS011;52495;52.208;5.158;2022-11-28T09:53:27;60.90;;;26.17;;
65757;SDS011;52495;52.208;5.158;2022-11-28T09:58:32;59.13;;;24.95;;
65757;SDS011;52495;52.208;5.158;2022-11-28T10:01:06;67.30;;;26.48;;
65757;SDS011;52495;52.208;5.158;2022-11-28T10:03:42;66.63;;;28.65;;
65757;SDS011;52495;52.208;5.158;2022-11-28T10:06:17;72.85;;;27.10;;
65757;SDS011;52495;52.208;5.158;2022-11-28T10:08:57;65.63;;;28.58;;
65757;SDS011;52495;52.208;5.158;2022-11-28T10:11:41;61.13;;;27.30;;
65757;SDS011;52495;52.208;5.158;2022-11-28T10:14:26;67.95;;;27.73;;
65757;SDS011;52495;52.208;5.158;2022-11-28T10:17:12;62.72;;;28.17;;
65757;SDS011;52495;52.208;5.158;2022-11-28T10:19:51;66.80;;;29.10;;
65757;SDS011;52495;52.208;5.158;2022-11-28T10:22:25;67.63;;;28.27;;
65757;SDS011;52495;52.208;5.158;2022-11-28T10:25:04;65.15;;;27.42;;
65757;SDS011;52495;52.208;5.158;2022-11-28T10:27:39;69.70;;;28.20;;
65757;SDS011;52495;52.208;5.158;2022-11-28T10:30:06;73.80;;;30.67;;
65757;SDS011;52495;52.208;5.158;2022-11-28T10:32:41;75.25;;;29.95;;
65757;SDS011;52495;52.208;5.158;2022-11-28T10:35:12;76.65;;;29.67;;
65757;SDS011;52495;52.208;5.158;2022-11-28T10:37:50;74.32;;;28.42;;
65757;SDS011;52495;52.208;5.158;2022-11-28T10:40:20;72.72;;;29.35;;
65757;SDS011;52495;52.208;5.158;2022-11-28T10:42:55;76.80;;;28.98;;
65757;SDS011;52495;52.208;5.158;2022-11-28T10:45:27;78.85;;;30.05;;
65757;SDS011;52495;52.208;5.158;2022-11-28T10:48:06;71.30;;;29.90;;
65757;SDS011;52495;52.208;5.158;2022-11-28T10:50:38;77.72;;;29.40;;
65757;SDS011;52495;52.208;5.158;2022-11-28T10:53:17;77.18;;;28.73;;
65757;SDS011;52495;52.208;5.158;2022-11-28T10:55:54;67.22;;;27.75;;
65757;SDS011;52495;52.208;5.158;2022-11-28T10:58:36;70.93;;;28.85;;
65757;SDS011;52495;52.208;5.158;2022-11-28T11:01:08;69.97;;;28.55;;
65757;SDS011;52495;52.208;5.158;2022-11-28T11:03:35;67.13;;;29.70;;
65757;SDS011;52495;52.208;5.158;2022-11-28T11:06:05;71.80;;;29.45;;
65757;SDS011;52495;52.208;5.158;2022-11-28T11:08:32;66.10;;;28.60;;
65757;SDS011;52495;52.208;5.158;2022-11-28T11:11:01;66.55;;;28.15;;
65757;SDS011;52495;52.208;5.158;2022-11-28T11:13:31;66.57;;;27.85;;
65757;SDS011;52495;52.208;5.158;2022-11-28T11:16:01;70.28;;;28.55;;
65757;SDS011;52495;52.208;5.158;2022-11-28T11:18:32;66.60;;;28.17;;
65757;SDS011;52495;52.208;5.158;2022-11-28T11:21:07;70.53;;;29.58;;
65757;SDS011;52495;52.208;5.158;2022-11-28T11:23:39;65.88;;;27.98;;
65757;SDS011;52495;52.208;5.158;2022-11-28T11:26:06;70.25;;;27.80;;
65757;SDS011;52495;52.208;5.158;2022-11-28T11:28:41;66.72;;;28.20;;
65757;SDS011;52495;52.208;5.158;2022-11-28T11:31:16;56.88;;;25.08;;
65757;SDS011;52495;52.208;5.158;2022-11-28T11:33:45;62.85;;;26.83;;
65757;SDS011;52495;52.208;5.158;2022-11-28T11:36:21;59.30;;;25.83;;
65757;SDS011;52495;52.208;5.158;2022-11-28T11:38:50;67.68;;;28.50;;
65757;SDS011;52495;52.208;5.158;2022-11-28T11:41:29;65.53;;;27.38;;
65757;SDS011;52495;52.208;5.158;2022-11-28T11:43:57;58.63;;;27.45;;
65757;SDS011;52495;52.208;5.158;2022-11-28T11:46:56;61.08;;;27.75;;
65757;SDS011;52495;52.208;5.158;2022-11-28T11:49:26;60.15;;;27.58;;
65757;SDS011;52495;52.208;5.158;2022-11-28T11:51:54;64.30;;;28.25;;
65757;SDS011;52495;52.208;5.158;2022-11-28T11:54:22;65.40;;;27.92;;
65757;SDS011;52495;52.208;5.158;2022-11-28T11:56:50;59.10;;;25.60;;
65757;SDS011;52495;52.208;5.158;2022-11-28T11:59:17;60.25;;;27.17;;
65757;SDS011;52495;52.208;5.158;2022-11-28T12:01:48;60.75;;;28.05;;
65757;SDS011;52495;52.208;5.158;2022-11-28T12:04:23;57.40;;;27.45;;
65757;SDS011;52495;52.208;5.158;2022-11-28T12:06:55;57.72;;;26.52;;
65757;SDS011;52495;52.208;5.158;2022-11-28T12:09:28;59.25;;;27.48;;
65757;SDS011;52495;52.208;5.158;2022-11-28T12:12:04;52.15;;;25.85;;
65757;SDS011;52495;52.208;5.158;2022-11-28T12:14:37;53.97;;;25.83;;
65757;SDS011;52495;52.208;5.158;2022-11-28T12:17:07;56.83;;;24.70;;
65757;SDS011;52495;52.208;5.158;2022-11-28T12:19:47;53.95;;;24.27;;
65757;SDS011;52495;52.208;5.158;2022-11-28T12:22:25;60.15;;;27.08;;
65757;SDS011;52495;52.208;5.158;2022-11-28T12:25:02;51.55;;;24.63;;
65757;SDS011;52495;52.208;5.158;2022-11-28T12:27:46;53.85;;;27.05;;
65757;SDS011;52495;52.208;5.158;2022-11-28T12:30:24;59.28;;;26.35;;
65757;SDS011;52495;52.208;5.158;2022-11-28T12:33:02;56.10;;;26.13;;
65757;SDS011;52495;52.208;5.158;2022-11-28T12:35:41;56.15;;;25.50;;
65757;SDS011;52495;52.208;5.158;2022-11-28T12:38:12;47.63;;;25.65;;
65757;SDS011;52495;52.208;5.158;2022-11-28T12:40:54;50.00;;;24.92;;
65757;SDS011;52495;52.208;5.158;2022-11-28T12:43:35;55.55;;;25.90;;
65757;SDS011;52495;52.208;5.158;2022-11-28T12:46:15;46.17;;;25.13;;
65757;SDS011;52495;52.208;5.158;2022-11-28T12:48:54;53.85;;;26.90;;
65757;SDS011;52495;52.208;5.158;2022-11-28T12:51:33;52.75;;;25.92;;
65757;SDS011;52495;52.208;5.158;2022-11-28T12:54:13;53.85;;;25.83;;
65757;SDS011;52495;52.208;5.158;2022-11-28T12:56:56;56.90;;;28.38;;
65757;SDS011;52495;52.208;5.158;2022-11-28T12:59:32;52.15;;;26.00;;
65757;SDS011;52495;52.208;5.158;2022-11-28T13:02:16;56.33;;;28.30;;
65757;SDS011;52495;52.208;5.158;2022-11-28T13:08:08;56.13;;;27.23;;
65757;SDS011;52495;52.208;5.158;2022-11-28T13:10:54;61.85;;;27.83;;
65757;SDS011;52495;52.208;5.158;2022-11-28T13:13:28;51.90;;;25.85;;
65757;SDS011;52495;52.208;5.158;2022-11-28T13:16:02;47.38;;;24.67;;
65757;SDS011;52495;52.208;5.158;2022-11-28T13:18:38;48.25;;;24.52;;
65757;SDS011;52495;52.208;5.158;2022-11-28T13:21:10;46.80;;;24.42;;
65757;SDS011;52495;52.208;5.158;2022-11-28T13:23:47;49.45;;;24.13;;
65757;SDS011;52495;52.208;5.158;2022-11-28T13:26:30;48.42;;;23.98;;
65757;SDS011;52495;52.208;5.158;2022-11-28T13:29:05;43.10;;;23.10;;
65757;SDS011;52495;52.208;5.158;2022-11-28T13:31:39;49.13;;;25.45;;
65757;SDS011;52495;52.208;5.158;2022-11-28T13:34:14;45.97;;;24.70;;
65757;SDS011;52495;52.208;5.158;2022-11-28T13:36:44;46.30;;;23.83;;
65757;SDS011;52495;52.208;5.158;2022-11-28T13:39:18;46.10;;;23.15;;
65757;SDS011;52495;52.208;5.158;2022-11-28T13:41:57;44.25;;;23.27;;
65757;SDS011;52495;52.208;5.158;2022-11-28T13:44:39;45.42;;;23.67;;
65757;SDS011;52495;52.208;5.158;2022-11-28T13:47:14;45.30;;;24.23;;
65757;SDS011;52495;52.208;5.158;2022-11-28T13:52:56;44.15;;;23.08;;
65757;SDS011;52495;52.208;5.158;2022-11-28T13:58:15;48.75;;;24.38;;
65757;SDS011;52495;52.208;5.158;2022-11-28T14:00:57;46.38;;;24.83;;
65757;SDS011;52495;52.208;5.158;2022-11-28T14:03:27;50.15;;;25.70;;
65757;SDS011;52495;52.208;5.158;2022-11-28T14:05:56;54.92;;;26.90;;
65757;SDS011;52495;52.208;5.158;2022-11-28T14:08:31;48.63;;;25.67;;
65757;SDS011;52495;52.208;5.158;2022-11-28T14:11:13;50.08;;;25.60;;
65757;SDS011;52495;52.208;5.158;2022-11-28T14:14:09;51.17;;;26.35;;
65757;SDS011;52495;52.208;5.158;2022-11-28T14:16:52;46.33;;;24.95;;
65757;SDS011;52495;52.208;5.158;2022-11-28T14:19:32;54.33;;;27.70;;
65757;SDS011;52495;52.208;5.158;2022-11-28T14:22:19;49.30;;;25.50;;
65757;SDS011;52495;52.208;5.158;2022-11-28T14:25:00;48.45;;;25.48;;
65757;SDS011;52495;52.208;5.158;2022-11-28T14:27:36;54.08;;;26.05;;
65757;SDS011;52495;52.208;5.158;2022-11-28T14:30:12;51.45;;;24.55;;
65757;SDS011;52495;52.208;5.158;2022-11-28T14:32:48;49.60;;;24.60;;
65757;SDS011;52495;52.208;5.158;2022-11-28T14:38:41;47.60;;;24.70;;
65757;SDS011;52495;52.208;5.158;2022-11-28T14:41:11;45.10;;;25.67;;
65757;SDS011;52495;52.208;5.158;2022-11-28T14:43:43;43.80;;;25.02;;
65757;SDS011;52495;52.208;5.158;2022-11-28T14:46:23;47.50;;;25.52;;
65757;SDS011;52495;52.208;5.158;2022-11-28T14:54:46;42.38;;;24.83;;
65757;SDS011;52495;52.208;5.158;2022-11-28T14:57:16;48.60;;;24.98;;
65757;SDS011;52495;52.208;5.158;2022-11-28T14:59:45;52.63;;;26.45;;
65757;SDS011;52495;52.208;5.158;2022-11-28T15:02:18;47.78;;;26.50;;
65757;SDS011;52495;52.208;5.158;2022-11-28T15:05:09;50.08;;;27.13;;
65757;SDS011;52495;52.208;5.158;2022-11-28T15:07:58;48.85;;;25.33;;
65757;SDS011;52495;52.208;5.158;2022-11-28T15:10:41;54.15;;;26.30;;
65757;SDS011;52495;52.208;5.158;2022-11-28T15:13:18;49.30;;;24.67;;
65757;SDS011;52495;52.208;5.158;2022-11-28T15:15:58;44.33;;;24.75;;
65757;SDS011;52495;52.208;5.158;2022-11-28T15:18:28;51.58;;;25.30;;
65757;SDS011;52495;52.208;5.158;2022-11-28T15:20:58;51.10;;;25.73;;